sensor_id;sensor_type;location;lat;lon;timestamp;pressure;altitude;pressure_sealevel;temperature;humidity
19526;BME280;9907;42.676;26.348;2024-03-07T00:02:19;99045.38;;;7.17;79.77
19526;BME280;9907;42.676;26.348;2024-03-07T00:04:45;99040.91;;;7.17;79.81
19526;BME280;9907;42.676;26.348;2024-03-07T00:07:11;99040.69;;;7.09;78.84
19526;BME280;9907;42.676;26.348;2024-03-07T00:09:37;99045.25;;;7.07;78.54
19526;BME280;9907;42.676;26.348;2024-03-07T00:12:03;99044.28;;;7.08;78.61
19526;BME280;9907;42.676;26.348;2024-03-07T00:14:29;99045.00;;;7.10;78.54
19526;BME280;9907;42.676;26.348;2024-03-07T00:16:57;99043.94;;;7.13;78.64
19526;BME280;9907;42.676;26.348;2024-03-07T00:19:24;99040.31;;;7.14;79.95
19526;BME280;9907;42.676;26.348;2024-03-07T00:21:55;99039.94;;;7.07;81.41
19526;BME280;9907;42.676;26.348;2024-03-07T00:24:21;99039.53;;;7.01;80.29
19526;BME280;9907;42.676;26.348;2024-03-07T00:26:48;99036.75;;;7.02;81.77
19526;BME280;9907;42.676;26.348;2024-03-07T00:29:17;99039.94;;;7.07;82.84
19526;BME280;9907;42.676;26.348;2024-03-07T00:31:46;99028.44;;;7.07;80.85
19526;BME280;9907;42.676;26.348;2024-03-07T00:34:13;99029.91;;;7.11;80.45
19526;BME280;9907;42.676;26.348;2024-03-07T00:36:45;99024.75;;;7.09;79.71
19526;BME280;9907;42.676;26.348;2024-03-07T00:39:11;99028.22;;;7.10;78.33
19526;BME280;9907;42.676;26.348;2024-03-07T00:41:38;99023.50;;;7.13;78.28
19526;BME280;9907;42.676;26.348;2024-03-07T00:44:04;99024.13;;;7.17;77.60
19526;BME280;9907;42.676;26.348;2024-03-07T00:46:29;99017.16;;;7.16;78.07
19526;BME280;9907;42.676;26.348;2024-03-07T00:48:55;99013.03;;;7.12;78.31
19526;BME280;9907;42.676;26.348;2024-03-07T00:51:20;99016.53;;;7.12;77.92
19526;BME280;9907;42.676;26.348;2024-03-07T00:53:46;99008.44;;;7.14;78.09
19526;BME280;9907;42.676;26.348;2024-03-07T00:56:12;99011.47;;;7.09;78.18
19526;BME280;9907;42.676;26.348;2024-03-07T00:58:38;99008.91;;;7.08;78.22
19526;BME280;9907;42.676;26.348;2024-03-07T01:01:03;99004.44;;;7.08;79.06
19526;BME280;9907;42.676;26.348;2024-03-07T01:03:28;98998.75;;;7.02;79.07
19526;BME280;9907;42.676;26.348;2024-03-07T01:05:54;99008.41;;;7.03;79.71
19526;BME280;9907;42.676;26.348;2024-03-07T01:08:19;99002.38;;;7.01;79.20
19526;BME280;9907;42.676;26.348;2024-03-07T01:10:45;99011.66;;;7.06;78.83
19526;BME280;9907;42.676;26.348;2024-03-07T01:13:10;99006.97;;;7.10;78.65
19526;BME280;9907;42.676;26.348;2024-03-07T01:15:44;99002.88;;;7.06;78.65
19526;BME280;9907;42.676;26.348;2024-03-07T01:18:10;99007.44;;;7.04;79.44
19526;BME280;9907;42.676;26.348;2024-03-07T01:20:36;99000.44;;;7.03;79.58
19526;BME280;9907;42.676;26.348;2024-03-07T01:23:01;99001.03;;;7.06;79.71
19526;BME280;9907;42.676;26.348;2024-03-07T01:25:27;98998.00;;;7.00;80.48
19526;BME280;9907;42.676;26.348;2024-03-07T01:27:52;98996.53;;;6.96;81.20
19526;BME280;9907;42.676;26.348;2024-03-07T01:30:17;99000.81;;;6.98;81.21
19526;BME280;9907;42.676;26.348;2024-03-07T01:32:43;99004.75;;;6.93;80.79
19526;BME280;9907;42.676;26.348;2024-03-07T01:35:09;99002.44;;;6.88;80.95
19526;BME280;9907;42.676;26.348;2024-03-07T01:37:35;99004.97;;;6.90;81.22
19526;BME280;9907;42.676;26.348;2024-03-07T01:40:02;98994.59;;;6.87;81.49
19526;BME280;9907;42.676;26.348;2024-03-07T01:42:28;99000.88;;;6.85;82.25
19526;BME280;9907;42.676;26.348;2024-03-07T01:44:53;99000.63;;;6.89;81.80
19526;BME280;9907;42.676;26.348;2024-03-07T01:47:19;99006.06;;;6.87;82.89
19526;BME280;9907;42.676;26.348;2024-03-07T01:49:44;98997.13;;;6.88;82.78
19526;BME280;9907;42.676;26.348;2024-03-07T01:52:11;98996.50;;;6.84;83.47
19526;BME280;9907;42.676;26.348;2024-03-07T01:54:37;99000.16;;;6.83;82.44
19526;BME280;9907;42.676;26.348;2024-03-07T01:57:04;98993.75;;;6.86;81.95
19526;BME280;9907;42.676;26.348;2024-03-07T01:59:31;99000.63;;;6.89;82.82
19526;BME280;9907;42.676;26.348;2024-03-07T02:01:58;98999.66;;;6.90;82.75
19526;BME280;9907;42.676;26.348;2024-03-07T02:04:24;99003.03;;;6.92;82.90
19526;BME280;9907;42.676;26.348;2024-03-07T02:06:50;98997.72;;;6.92;81.59
19526;BME280;9907;42.676;26.348;2024-03-07T02:09:22;98999.66;;;6.90;82.25
19526;BME280;9907;42.676;26.348;2024-03-07T02:11:48;98998.91;;;6.88;81.56
19526;BME280;9907;42.676;26.348;2024-03-07T02:14:14;98995.94;;;6.92;81.10
19526;BME280;9907;42.676;26.348;2024-03-07T02:16:39;98993.19;;;6.94;81.42
19526;BME280;9907;42.676;26.348;2024-03-07T02:19:05;98999.91;;;6.87;81.15
19526;BME280;9907;42.676;26.348;2024-03-07T02:21:32;99000.38;;;6.92;80.89
19526;BME280;9907;42.676;26.348;2024-03-07T02:23:58;98997.13;;;6.88;81.23
19526;BME280;9907;42.676;26.348;2024-03-07T02:26:24;98999.28;;;6.83;81.04
19526;BME280;9907;42.676;26.348;2024-03-07T02:28:50;98993.63;;;6.88;81.16
19526;BME280;9907;42.676;26.348;2024-03-07T02:31:15;98995.31;;;6.89;81.30
19526;BME280;9907;42.676;26.348;2024-03-07T02:33:41;98991.09;;;6.86;81.14
19526;BME280;9907;42.676;26.348;2024-03-07T02:36:07;98999.66;;;6.90;81.18
19526;BME280;9907;42.676;26.348;2024-03-07T02:38:32;98990.25;;;6.85;81.43
19526;BME280;9907;42.676;26.348;2024-03-07T02:40:59;98989.28;;;6.87;81.89
19526;BME280;9907;42.676;26.348;2024-03-07T02:43:25;98994.94;;;6.82;82.56
19526;BME280;9907;42.676;26.348;2024-03-07T02:45:50;98988.88;;;6.80;83.10
19526;BME280;9907;42.676;26.348;2024-03-07T02:48:16;98994.69;;;6.85;82.01
19526;BME280;9907;42.676;26.348;2024-03-07T02:50:43;98999.53;;;6.91;81.91
19526;BME280;9907;42.676;26.348;2024-03-07T02:53:09;98995.44;;;6.87;82.88
19526;BME280;9907;42.676;26.348;2024-03-07T02:55:34;98997.34;;;6.85;83.07
19526;BME280;9907;42.676;26.348;2024-03-07T02:58:00;98991.53;;;6.80;83.94
19526;BME280;9907;42.676;26.348;2024-03-07T03:00:26;98998.44;;;6.82;84.35
19526;BME280;9907;42.676;26.348;2024-03-07T03:02:58;98995.56;;;6.85;83.52
19526;BME280;9907;42.676;26.348;2024-03-07T03:05:23;98996.75;;;6.81;84.29
19526;BME280;9907;42.676;26.348;2024-03-07T03:07:49;98998.91;;;6.88;83.93
19526;BME280;9907;42.676;26.348;2024-03-07T03:10:25;99000.91;;;6.73;85.00
19526;BME280;9907;42.676;26.348;2024-03-07T03:12:56;99004.41;;;6.73;84.50
19526;BME280;9907;42.676;26.348;2024-03-07T03:15:26;99004.09;;;6.78;85.11
19526;BME280;9907;42.676;26.348;2024-03-07T03:17:52;99006.75;;;6.78;83.63
19526;BME280;9907;42.676;26.348;2024-03-07T03:20:18;99003.00;;;6.80;84.02
19526;BME280;9907;42.676;26.348;2024-03-07T03:23:12;99006.66;;;6.79;84.51
19526;BME280;9907;42.676;26.348;2024-03-07T03:25:39;99009.28;;;6.79;84.66
19526;BME280;9907;42.676;26.348;2024-03-07T03:28:05;99006.66;;;6.79;84.18
19526;BME280;9907;42.676;26.348;2024-03-07T03:30:31;99002.28;;;6.78;85.05
19526;BME280;9907;42.676;26.348;2024-03-07T03:32:58;99001.19;;;6.81;85.16
19526;BME280;9907;42.676;26.348;2024-03-07T03:35:24;99007.59;;;6.78;85.15
19526;BME280;9907;42.676;26.348;2024-03-07T03:37:49;99010.88;;;6.82;85.00
19526;BME280;9907;42.676;26.348;2024-03-07T03:40:15;99009.06;;;6.82;84.77
19526;BME280;9907;42.676;26.348;2024-03-07T03:42:41;99014.47;;;6.81;84.58
19526;BME280;9907;42.676;26.348;2024-03-07T03:45:09;99012.66;;;6.81;84.96
19526;BME280;9907;42.676;26.348;2024-03-07T03:47:38;99010.34;;;6.77;84.76
19526;BME280;9907;42.676;26.348;2024-03-07T03:50:07;99006.97;;;6.75;85.14
19526;BME280;9907;42.676;26.348;2024-03-07T03:52:33;99009.69;;;6.86;84.32
19526;BME280;9907;42.676;26.348;2024-03-07T03:55:02;99004.38;;;6.86;82.81
19526;BME280;9907;42.676;26.348;2024-03-07T03:57:28;99006.16;;;6.85;84.00
19526;BME280;9907;42.676;26.348;2024-03-07T03:59:55;99000.63;;;6.89;82.52
19526;BME280;9907;42.676;26.348;2024-03-07T04:02:21;99009.69;;;6.86;83.87
19526;BME280;9907;42.676;26.348;2024-03-07T04:04:50;99010.88;;;6.82;84.63
19526;BME280;9907;42.676;26.348;2024-03-07T04:07:19;99007.13;;;6.84;83.99
19526;BME280;9907;42.676;26.348;2024-03-07T04:09:45;99003.63;;;6.84;83.18
19526;BME280;9907;42.676;26.348;2024-03-07T04:12:11;99008.22;;;6.82;83.43
19526;BME280;9907;42.676;26.348;2024-03-07T04:14:40;98997.97;;;6.89;82.95
19526;BME280;9907;42.676;26.348;2024-03-07T04:17:08;99003.03;;;6.92;81.81
19526;BME280;9907;42.676;26.348;2024-03-07T04:19:35;98999.34;;;6.94;82.46
19526;BME280;9907;42.676;26.348;2024-03-07T04:22:01;99007.16;;;6.96;81.69
19526;BME280;9907;42.676;26.348;2024-03-07T04:24:29;99005.50;;;6.95;80.66
19526;BME280;9907;42.676;26.348;2024-03-07T04:27:01;99001.75;;;6.97;81.00
19526;BME280;9907;42.676;26.348;2024-03-07T04:29:30;99002.84;;;6.95;82.24
19526;BME280;9907;42.676;26.348;2024-03-07T04:31:56;98998.97;;;6.99;80.62
19526;BME280;9907;42.676;26.348;2024-03-07T04:34:23;99001.63;;;6.99;80.30
19526;BME280;9907;42.676;26.348;2024-03-07T04:36:48;99000.91;;;6.97;83.74
19526;BME280;9907;42.676;26.348;2024-03-07T04:39:13;99009.34;;;6.91;81.98
19526;BME280;9907;42.676;26.348;2024-03-07T04:42:02;99013.66;;;6.92;82.58
19526;BME280;9907;42.676;26.348;2024-03-07T04:44:28;99005.78;;;6.79;84.82
19526;BME280;9907;42.676;26.348;2024-03-07T04:46:54;99002.34;;;6.66;87.40
19526;BME280;9907;42.676;26.348;2024-03-07T04:49:30;99011.91;;;6.68;87.52
19526;BME280;9907;42.676;26.348;2024-03-07T04:51:57;99009.97;;;6.70;87.26
19526;BME280;9907;42.676;26.348;2024-03-07T04:54:24;99016.22;;;6.69;88.59
19526;BME280;9907;42.676;26.348;2024-03-07T04:56:51;99013.09;;;6.64;88.91
19526;BME280;9907;42.676;26.348;2024-03-07T04:59:17;99022.53;;;6.68;88.47
19526;BME280;9907;42.676;26.348;2024-03-07T05:01:45;99016.78;;;6.62;88.81
19526;BME280;9907;42.676;26.348;2024-03-07T05:04:12;99015.97;;;6.61;89.17
19526;BME280;9907;42.676;26.348;2024-03-07T05:06:38;99013.56;;;6.69;88.15
19526;BME280;9907;42.676;26.348;2024-03-07T05:09:07;99016.03;;;6.72;89.24
19526;BME280;9907;42.676;26.348;2024-03-07T05:11:33;99003.00;;;6.80;88.32
19526;BME280;9907;42.676;26.348;2024-03-07T05:14:00;99011.19;;;6.77;88.01
19526;BME280;9907;42.676;26.348;2024-03-07T05:16:29;99020.88;;;6.78;88.56
19526;BME280;9907;42.676;26.348;2024-03-07T05:18:55;99028.78;;;6.67;89.53
19526;BME280;9907;42.676;26.348;2024-03-07T05:21:25;99032.56;;;6.76;90.06
19526;BME280;9907;42.676;26.348;2024-03-07T05:24:07;99028.84;;;6.78;87.59
19526;BME280;9907;42.676;26.348;2024-03-07T05:26:35;99039.91;;;6.72;88.24
19526;BME280;9907;42.676;26.348;2024-03-07T05:29:10;99043.53;;;6.71;87.15
19526;BME280;9907;42.676;26.348;2024-03-07T05:31:39;99050.25;;;6.64;87.85
19526;BME280;9907;42.676;26.348;2024-03-07T05:34:15;99047.13;;;6.70;87.76
19526;BME280;9907;42.676;26.348;2024-03-07T05:36:45;99048.38;;;6.77;86.26
19526;BME280;9907;42.676;26.348;2024-03-07T05:39:15;99055.66;;;6.63;87.40
19526;BME280;9907;42.676;26.348;2024-03-07T05:41:43;99049.00;;;6.57;88.53
19526;BME280;9907;42.676;26.348;2024-03-07T05:44:10;99050.47;;;6.61;87.63
19526;BME280;9907;42.676;26.348;2024-03-07T05:46:36;99054.63;;;6.53;88.46
19526;BME280;9907;42.676;26.348;2024-03-07T05:49:06;99055.88;;;6.60;88.23
19526;BME280;9907;42.676;26.348;2024-03-07T05:51:32;99061.41;;;6.57;89.43
19526;BME280;9907;42.676;26.348;2024-03-07T05:53:57;99060.91;;;6.52;90.59
19526;BME280;9907;42.676;26.348;2024-03-07T05:56:23;99065.72;;;6.47;90.85
19526;BME280;9907;42.676;26.348;2024-03-07T05:58:49;99066.09;;;6.53;89.97
19526;BME280;9907;42.676;26.348;2024-03-07T06:01:17;99061.41;;;6.57;89.32
19526;BME280;9907;42.676;26.348;2024-03-07T06:03:43;99062.47;;;6.54;90.26
19526;BME280;9907;42.676;26.348;2024-03-07T06:06:09;99075.53;;;6.57;89.29
19526;BME280;9907;42.676;26.348;2024-03-07T06:08:37;99072.09;;;6.68;89.09
19526;BME280;9907;42.676;26.348;2024-03-07T06:11:03;99068.88;;;6.75;88.79
19526;BME280;9907;42.676;26.348;2024-03-07T06:13:28;99070.91;;;6.72;88.91
19526;BME280;9907;42.676;26.348;2024-03-07T06:15:54;99067.50;;;6.70;88.30
19526;BME280;9907;42.676;26.348;2024-03-07T06:18:19;99072.59;;;6.73;89.12
19526;BME280;9907;42.676;26.348;2024-03-07T06:20:55;99077.63;;;6.65;89.43
19526;BME280;9907;42.676;26.348;2024-03-07T06:23:22;99073.44;;;6.73;89.87
19526;BME280;9907;42.676;26.348;2024-03-07T06:25:47;99069.84;;;6.74;88.95
19526;BME280;9907;42.676;26.348;2024-03-07T06:28:16;99077.19;;;6.71;87.76
19526;BME280;9907;42.676;26.348;2024-03-07T06:30:45;99084.28;;;6.70;87.66
19526;BME280;9907;42.676;26.348;2024-03-07T06:33:12;99081.00;;;6.67;87.55
19526;BME280;9907;42.676;26.348;2024-03-07T06:35:38;99082.41;;;6.72;87.42
19526;BME280;9907;42.676;26.348;2024-03-07T06:38:07;99081.78;;;6.80;88.33
19526;BME280;9907;42.676;26.348;2024-03-07T06:40:36;99081.41;;;6.73;89.20
19526;BME280;9907;42.676;26.348;2024-03-07T06:43:02;99076.84;;;6.75;89.23
19526;BME280;9907;42.676;26.348;2024-03-07T06:45:38;99072.31;;;6.89;87.22
19526;BME280;9907;42.676;26.348;2024-03-07T06:48:07;99072.31;;;6.89;88.26
19526;BME280;9907;42.676;26.348;2024-03-07T06:50:33;99073.28;;;6.88;89.74
19526;BME280;9907;42.676;26.348;2024-03-07T06:53:00;99071.59;;;6.87;88.90
19526;BME280;9907;42.676;26.348;2024-03-07T06:55:25;99075.22;;;6.85;89.63
19526;BME280;9907;42.676;26.348;2024-03-07T06:57:52;99082.72;;;6.92;88.94
19526;BME280;9907;42.676;26.348;2024-03-07T07:00:19;99086.34;;;6.91;90.13
19526;BME280;9907;42.676;26.348;2024-03-07T07:02:45;99085.66;;;7.00;89.45
19526;BME280;9907;42.676;26.348;2024-03-07T07:05:11;99091.09;;;6.98;88.67
19526;BME280;9907;42.676;26.348;2024-03-07T07:07:38;99089.16;;;7.00;87.79
19526;BME280;9907;42.676;26.348;2024-03-07T07:10:04;99091.75;;;7.13;87.42
19526;BME280;9907;42.676;26.348;2024-03-07T07:12:33;99087.88;;;7.17;87.91
19526;BME280;9907;42.676;26.348;2024-03-07T07:15:00;99096.59;;;7.19;85.86
19526;BME280;9907;42.676;26.348;2024-03-07T07:17:25;99092.41;;;7.27;84.89
19526;BME280;9907;42.676;26.348;2024-03-07T07:19:54;99087.22;;;7.26;84.07
19526;BME280;9907;42.676;26.348;2024-03-07T07:22:21;99091.84;;;7.35;83.13
19526;BME280;9907;42.676;26.348;2024-03-07T07:24:46;99092.47;;;7.39;82.93
19526;BME280;9907;42.676;26.348;2024-03-07T07:27:12;99091.72;;;7.37;80.75
19526;BME280;9907;42.676;26.348;2024-03-07T07:29:37;99095.34;;;7.47;80.58
19526;BME280;9907;42.676;26.348;2024-03-07T07:32:03;99091.41;;;7.52;80.11
19526;BME280;9907;42.676;26.348;2024-03-07T07:34:29;99090.31;;;7.55;80.39
19526;BME280;9907;42.676;26.348;2024-03-07T07:36:55;99095.28;;;7.59;79.55
19526;BME280;9907;42.676;26.348;2024-03-07T07:39:21;99088.03;;;7.72;78.92
19526;BME280;9907;42.676;26.348;2024-03-07T07:41:47;99089.06;;;7.82;77.49
19526;BME280;9907;42.676;26.348;2024-03-07T07:44:12;99090.72;;;7.83;77.72
19526;BME280;9907;42.676;26.348;2024-03-07T07:46:39;99093.03;;;7.88;77.09
19526;BME280;9907;42.676;26.348;2024-03-07T07:49:06;99085.19;;;7.98;77.21
19526;BME280;9907;42.676;26.348;2024-03-07T07:51:31;99086.16;;;8.08;76.56
19526;BME280;9907;42.676;26.348;2024-03-07T07:53:57;99087.63;;;8.12;77.03
19526;BME280;9907;42.676;26.348;2024-03-07T07:56:23;99085.81;;;8.12;76.97
19526;BME280;9907;42.676;26.348;2024-03-07T07:58:49;99087.63;;;8.12;76.34
19526;BME280;9907;42.676;26.348;2024-03-07T08:01:15;99100.66;;;8.15;75.59
19526;BME280;9907;42.676;26.348;2024-03-07T08:03:43;99087.47;;;8.13;74.83
19526;BME280;9907;42.676;26.348;2024-03-07T08:06:09;99098.50;;;8.09;75.33
19526;BME280;9907;42.676;26.348;2024-03-07T08:08:34;99100.78;;;8.24;74.80
19526;BME280;9907;42.676;26.348;2024-03-07T08:10:59;99097.69;;;8.30;74.38
19526;BME280;9907;42.676;26.348;2024-03-07T08:13:26;99099.13;;;8.12;75.06
19526;BME280;9907;42.676;26.348;2024-03-07T08:15:52;99106.00;;;8.15;74.29
19526;BME280;9907;42.676;26.348;2024-03-07T08:18:19;99106.50;;;8.20;72.36
19526;BME280;9907;42.676;26.348;2024-03-07T08:20:45;99097.19;;;8.37;71.39
19526;BME280;9907;42.676;26.348;2024-03-07T08:23:11;99100.81;;;8.36;71.00
19526;BME280;9907;42.676;26.348;2024-03-07T08:25:39;99097.53;;;8.43;70.37
19526;BME280;9907;42.676;26.348;2024-03-07T08:28:06;99093.81;;;8.46;70.16
19526;BME280;9907;42.676;26.348;2024-03-07T08:30:34;99100.69;;;8.37;69.67
19526;BME280;9907;42.676;26.348;2024-03-07T08:33:00;99104.81;;;8.41;70.32
19526;BME280;9907;42.676;26.348;2024-03-07T08:35:28;99103.47;;;8.47;69.07
19526;BME280;9907;42.676;26.348;2024-03-07T08:37:57;99098.75;;;8.39;68.52
19526;BME280;9907;42.676;26.348;2024-03-07T08:40:23;99101.19;;;8.42;68.75
19526;BME280;9907;42.676;26.348;2024-03-07T08:42:51;99106.53;;;8.42;67.69
19526;BME280;9907;42.676;26.348;2024-03-07T08:45:17;99110.25;;;8.51;67.67
19526;BME280;9907;42.676;26.348;2024-03-07T08:47:45;99098.88;;;8.49;69.08
19526;BME280;9907;42.676;26.348;2024-03-07T08:50:12;99092.81;;;8.58;67.65
19526;BME280;9907;42.676;26.348;2024-03-07T08:52:38;99097.50;;;8.65;67.55
19526;BME280;9907;42.676;26.348;2024-03-07T08:55:06;99096.03;;;8.72;68.08
19526;BME280;9907;42.676;26.348;2024-03-07T08:57:36;99101.00;;;8.77;68.19
19526;BME280;9907;42.676;26.348;2024-03-07T09:00:08;99097.88;;;8.72;68.33
19526;BME280;9907;42.676;26.348;2024-03-07T09:02:35;99100.28;;;8.75;68.54
19526;BME280;9907;42.676;26.348;2024-03-07T09:05:01;99099.28;;;8.87;69.30
19526;BME280;9907;42.676;26.348;2024-03-07T09:07:27;99099.06;;;8.79;68.42
19526;BME280;9907;42.676;26.348;2024-03-07T09:09:55;99096.78;;;8.74;68.44
19526;BME280;9907;42.676;26.348;2024-03-07T09:12:20;99096.16;;;8.82;68.44
19526;BME280;9907;42.676;26.348;2024-03-07T09:14:45;99095.69;;;8.77;68.18
19526;BME280;9907;42.676;26.348;2024-03-07T09:17:11;99090.47;;;8.87;68.85
19526;BME280;9907;42.676;26.348;2024-03-07T09:19:37;99091.16;;;8.89;69.83
19526;BME280;9907;42.676;26.348;2024-03-07T09:22:03;99104.72;;;8.97;69.34
19526;BME280;9907;42.676;26.348;2024-03-07T09:24:30;99103.03;;;8.85;68.31
19526;BME280;9907;42.676;26.348;2024-03-07T09:26:56;99099.81;;;8.70;68.61
19526;BME280;9907;42.676;26.348;2024-03-07T09:29:23;99104.03;;;8.72;68.94
19526;BME280;9907;42.676;26.348;2024-03-07T09:31:49;99101.88;;;8.66;68.61
19526;BME280;9907;42.676;26.348;2024-03-07T09:34:17;99094.16;;;8.63;69.77
19526;BME280;9907;42.676;26.348;2024-03-07T09:36:44;99108.16;;;8.65;69.21
19526;BME280;9907;42.676;26.348;2024-03-07T09:39:10;99100.44;;;8.62;69.35
19526;BME280;9907;42.676;26.348;2024-03-07T09:41:38;99099.94;;;8.57;69.33
19526;BME280;9907;42.676;26.348;2024-03-07T09:44:04;99103.09;;;8.51;69.64
19526;BME280;9907;42.676;26.348;2024-03-07T09:46:30;99097.75;;;8.62;70.42
19526;BME280;9907;42.676;26.348;2024-03-07T09:48:57;99104.56;;;8.55;71.39
19526;BME280;9907;42.676;26.348;2024-03-07T09:51:23;99097.53;;;8.43;70.80
19526;BME280;9907;42.676;26.348;2024-03-07T09:53:50;99103.97;;;8.41;71.15
19526;BME280;9907;42.676;26.348;2024-03-07T09:56:23;99098.97;;;8.58;72.40
19526;BME280;9907;42.676;26.348;2024-03-07T09:58:52;99098.97;;;8.58;73.29
19526;BME280;9907;42.676;26.348;2024-03-07T10:01:27;99104.78;;;8.63;71.71
19526;BME280;9907;42.676;26.348;2024-03-07T10:03:58;99095.84;;;8.64;73.32
19526;BME280;9907;42.676;26.348;2024-03-07T10:06:26;99091.13;;;8.68;71.39
19526;BME280;9907;42.676;26.348;2024-03-07T10:08:55;99094.47;;;8.70;71.29
19526;BME280;9907;42.676;26.348;2024-03-07T10:11:21;99097.63;;;8.75;74.34
19526;BME280;9907;42.676;26.348;2024-03-07T10:13:46;99096.28;;;8.69;78.13
19526;BME280;9907;42.676;26.348;2024-03-07T10:16:16;99098.09;;;8.80;80.15
19526;BME280;9907;42.676;26.348;2024-03-07T10:18:43;99096.28;;;8.69;81.33
19526;BME280;9907;42.676;26.348;2024-03-07T10:21:10;99098.09;;;8.69;88.27
19526;BME280;9907;42.676;26.348;2024-03-07T10:23:36;99102.97;;;8.64;88.09
19526;BME280;9907;42.676;26.348;2024-03-07T10:26:04;99101.75;;;8.79;84.53
19526;BME280;9907;42.676;26.348;2024-03-07T10:28:29;99105.91;;;8.61;89.98
19526;BME280;9907;42.676;26.348;2024-03-07T10:30:56;99102.75;;;8.45;96.31
19526;BME280;9907;42.676;26.348;2024-03-07T10:33:26;99103.13;;;8.40;94.67
19526;BME280;9907;42.676;26.348;2024-03-07T10:35:52;99107.00;;;8.36;97.22
19526;BME280;9907;42.676;26.348;2024-03-07T10:38:18;99103.44;;;8.24;98.89
19526;BME280;9907;42.676;26.348;2024-03-07T10:40:47;99104.03;;;8.28;100.00
19526;BME280;9907;42.676;26.348;2024-03-07T10:43:19;99097.53;;;8.21;100.00
19526;BME280;9907;42.676;26.348;2024-03-07T10:45:46;99098.13;;;8.24;100.00
19526;BME280;9907;42.676;26.348;2024-03-07T10:48:13;99098.72;;;8.06;96.46
19526;BME280;9907;42.676;26.348;2024-03-07T10:58:38;99094.50;;;8.25;100.00
19526;BME280;9907;42.676;26.348;2024-03-07T11:01:07;99097.34;;;8.35;100.00
19526;BME280;9907;42.676;26.348;2024-03-07T11:03:36;99098.16;;;8.36;100.00
19526;BME280;9907;42.676;26.348;2024-03-07T11:06:02;99090.13;;;8.24;100.00
19526;BME280;9907;42.676;26.348;2024-03-07T11:08:35;99092.47;;;8.29;100.00
19526;BME280;9907;42.676;26.348;2024-03-07T11:11:02;99095.00;;;8.19;100.00
19526;BME280;9907;42.676;26.348;2024-03-07T11:13:28;99088.81;;;7.97;100.00
19526;BME280;9907;42.676;26.348;2024-03-07T11:15:55;99086.78;;;8.11;100.00
19526;BME280;9907;42.676;26.348;2024-03-07T11:18:23;99081.94;;;8.16;100.00
19526;BME280;9907;42.676;26.348;2024-03-07T11:20:52;99089.06;;;8.05;100.00
19526;BME280;9907;42.676;26.348;2024-03-07T11:23:28;99087.63;;;8.12;100.00
19526;BME280;9907;42.676;26.348;2024-03-07T11:25:56;99088.72;;;8.31;100.00
19526;BME280;9907;42.676;26.348;2024-03-07T11:28:29;99093.41;;;8.17;100.00
19526;BME280;9907;42.676;26.348;2024-03-07T11:31:27;99090.03;;;8.04;100.00
19526;BME280;9907;42.676;26.348;2024-03-07T11:34:15;99085.06;;;8.10;100.00
19526;BME280;9907;42.676;26.348;2024-03-07T11:36:45;99093.41;;;8.28;100.00
19526;BME280;9907;42.676;26.348;2024-03-07T11:39:42;99093.66;;;8.03;100.00
19526;BME280;9907;42.676;26.348;2024-03-07T11:44:57;99091.47;;;7.86;100.00
19526;BME280;9907;42.676;26.348;2024-03-07T11:47:26;99100.75;;;7.91;100.00
19526;BME280;9907;42.676;26.348;2024-03-07T11:49:55;99094.38;;;7.94;100.00
19526;BME280;9907;42.676;26.348;2024-03-07T11:52:25;99096.81;;;8.08;100.00
19526;BME280;9907;42.676;26.348;2024-03-07T11:54:53;99089.19;;;8.25;100.00
19526;BME280;9907;42.676;26.348;2024-03-07T11:57:19;99090.72;;;7.83;100.00
19526;BME280;9907;42.676;26.348;2024-03-07T11:59:47;99090.63;;;7.85;100.00
19526;BME280;9907;42.676;26.348;2024-03-07T12:02:17;99090.53;;;7.98;100.00
19526;BME280;9907;42.676;26.348;2024-03-07T12:04:49;99075.78;;;8.05;100.00
19526;BME280;9907;42.676;26.348;2024-03-07T12:07:15;99085.66;;;8.03;100.00
19526;BME280;9907;42.676;26.348;2024-03-07T12:09:44;99083.25;;;8.00;100.00
19526;BME280;9907;42.676;26.348;2024-03-07T12:12:16;99085.19;;;7.98;100.00
19526;BME280;9907;42.676;26.348;2024-03-07T12:14:43;99086.41;;;8.05;100.00
19526;BME280;9907;42.676;26.348;2024-03-07T12:17:08;99087.59;;;7.90;100.00
19526;BME280;9907;42.676;26.348;2024-03-07T12:19:35;99084.44;;;7.84;100.00
19526;BME280;9907;42.676;26.348;2024-03-07T12:22:01;99084.94;;;7.78;100.00
19526;BME280;9907;42.676;26.348;2024-03-07T12:24:27;99086.16;;;7.86;100.00
19526;BME280;9907;42.676;26.348;2024-03-07T12:27:15;99085.41;;;7.95;100.00
19526;BME280;9907;42.676;26.348;2024-03-07T12:29:42;99090.13;;;7.91;100.00
19526;BME280;9907;42.676;26.348;2024-03-07T12:32:13;99087.25;;;7.83;100.00
19526;BME280;9907;42.676;26.348;2024-03-07T12:34:40;99078.66;;;7.79;100.00
19526;BME280;9907;42.676;26.348;2024-03-07T12:37:12;99086.84;;;7.76;100.00
19526;BME280;9907;42.676;26.348;2024-03-07T12:39:44;99088.81;;;7.86;100.00
19526;BME280;9907;42.676;26.348;2024-03-07T12:42:19;99090.63;;;7.85;100.00
19526;BME280;9907;42.676;26.348;2024-03-07T12:44:46;99087.94;;;7.85;100.00
19526;BME280;9907;42.676;26.348;2024-03-07T12:47:13;99081.91;;;7.83;100.00
19526;BME280;9907;42.676;26.348;2024-03-07T12:49:44;99077.94;;;8.00;100.00
19526;BME280;9907;42.676;26.348;2024-03-07T12:52:12;99071.41;;;8.15;100.00
19526;BME280;9907;42.676;26.348;2024-03-07T12:54:41;99079.38;;;8.04;100.00
19526;BME280;9907;42.676;26.348;2024-03-07T12:57:08;99071.41;;;8.15;100.00
19526;BME280;9907;42.676;26.348;2024-03-07T12:59:35;99071.66;;;8.23;100.00
19526;BME280;9907;42.676;26.348;2024-03-07T13:02:03;99061.50;;;8.39;100.00
19526;BME280;9907;42.676;26.348;2024-03-07T13:04:32;99069.94;;;8.00;100.00
19526;BME280;9907;42.676;26.348;2024-03-07T13:06:57;99064.13;;;8.06;100.00
19526;BME280;9907;42.676;26.348;2024-03-07T13:09:25;99062.47;;;7.94;100.00
19526;BME280;9907;42.676;26.348;2024-03-07T13:11:56;99067.41;;;7.87;100.00
19526;BME280;9907;42.676;26.348;2024-03-07T13:14:23;99060.28;;;8.10;100.00
19526;BME280;9907;42.676;26.348;2024-03-07T13:16:49;99058.22;;;8.13;100.00
19526;BME280;9907;42.676;26.348;2024-03-07T13:19:16;99056.41;;;8.14;100.00
19526;BME280;9907;42.676;26.348;2024-03-07T13:21:46;99052.44;;;8.30;100.00
19526;BME280;9907;42.676;26.348;2024-03-07T13:24:14;99052.69;;;8.39;100.00